Time;durP1;ratioP1;P1;durP2;ratioP2;P2;SDS_P1;SDS_P2;PMS_P1;PMS_P2;Temp;Humidity;BMP_temperature;BMP_pressure;BME280_temperature;BME280_humidity;BME280_pressure;Samples;Min_cycle;Max_cycle;Signal;HPM_P1;HPM_P2
2023/06/28 00:00:30;;;;;;;2.22;1.13;;;17.10;99.90;;;;;;5048158;28;20064;-69
2023/06/28 00:02:56;;;;;;;4.32;1.50;;;17.20;99.90;;;;;;5050056;28;20115;-69
2023/06/28 00:05:22;;;;;;;2.85;1.20;;;17.20;99.90;;;;;;5052146;28;20036;-68
2023/06/28 00:07:48;;;;;;;2.58;1.17;;;17.30;99.90;;;;;;5050356;28;20907;-68
2023/06/28 00:10:13;;;;;;;2.10;1.27;;;17.30;99.90;;;;;;5053115;28;20044;-68
2023/06/28 00:12:39;;;;;;;1.35;1.00;;;17.20;99.90;;;;;;5044695;28;20044;-69
2023/06/28 00:15:06;;;;;;;2.00;1.48;;;17.20;99.90;;;;;;5043940;28;20035;-69
2023/06/28 00:17:32;;;;;;;2.10;1.30;;;17.10;99.90;;;;;;5047735;28;20040;-69
2023/06/28 00:19:59;;;;;;;1.92;1.05;;;17.10;99.90;;;;;;5051637;28;20137;-69
2023/06/28 00:22:29;;;;;;;1.55;1.30;;;17.10;99.90;;;;;;5046312;28;20070;-69
2023/06/28 00:24:56;;;;;;;5.15;1.10;;;17.10;99.90;;;;;;5020149;28;20037;-69
2023/06/28 00:27:21;;;;;;;2.63;1.27;;;17.10;99.90;;;;;;5049611;28;20036;-68
2023/06/28 00:29:47;;;;;;;2.80;1.20;;;17.00;99.90;;;;;;5053027;28;21253;-70
2023/06/28 00:32:12;;;;;;;5.60;1.33;;;17.00;99.90;;;;;;5032205;28;20060;-69
2023/06/28 00:34:38;;;;;;;3.67;1.20;;;17.00;99.90;;;;;;5055432;28;20032;-69
2023/06/28 00:37:04;;;;;;;3.08;1.60;;;16.90;99.90;;;;;;5050924;28;20091;-69
2023/06/28 00:39:30;;;;;;;4.95;1.40;;;16.80;99.90;;;;;;5051563;28;20106;-70
2023/06/28 00:41:56;;;;;;;2.55;1.40;;;16.80;99.90;;;;;;5055536;28;20063;-68
2023/06/28 00:44:22;;;;;;;5.75;1.83;;;16.70;99.90;;;;;;5053857;28;20480;-70
2023/06/28 00:46:48;;;;;;;4.00;1.20;;;16.60;99.90;;;;;;5053798;28;20040;-69
2023/06/28 00:49:15;;;;;;;1.98;1.35;;;16.50;99.90;;;;;;5050649;28;20040;-69
2023/06/28 00:51:41;;;;;;;2.65;1.67;;;16.40;99.90;;;;;;5054436;28;20040;-68
2023/06/28 00:54:07;;;;;;;1.88;1.30;;;16.40;99.90;;;;;;5055208;28;20067;-68
2023/06/28 00:56:34;;;;;;;2.20;1.23;;;16.40;99.90;;;;;;5055333;28;20433;-68
2023/06/28 00:59:01;;;;;;;4.22;1.23;;;16.40;99.90;;;;;;5054496;28;20062;-69
2023/06/28 01:01:27;;;;;;;2.50;1.70;;;16.40;99.90;;;;;;5051778;28;20036;-68
2023/06/28 01:03:53;;;;;;;1.70;1.20;;;16.40;99.90;;;;;;5044382;28;20314;-68
2023/06/28 01:06:21;;;;;;;2.20;1.17;;;16.40;99.90;;;;;;5055216;28;20067;-69
2023/06/28 01:08:47;;;;;;;3.35;1.40;;;16.50;99.90;;;;;;5050539;28;20029;-68
2023/06/28 01:11:12;;;;;;;0.95;0.75;;;16.50;99.90;;;;;;5054350;28;20549;-68
2023/06/28 01:13:39;;;;;;;2.95;1.13;;;16.50;99.90;;;;;;5052658;28;20045;-68
2023/06/28 01:16:05;;;;;;;4.03;1.20;;;16.50;99.90;;;;;;5049439;28;20028;-68
2023/06/28 01:18:33;;;;;;;3.35;1.40;;;16.40;99.90;;;;;;5052551;28;20032;-68
2023/06/28 01:21:04;;;;;;;4.50;1.13;;;16.30;99.90;;;;;;5053600;28;20025;-67
2023/06/28 01:23:30;;;;;;;1.60;1.00;;;16.30;99.90;;;;;;5054544;28;20036;-68
2023/06/28 01:25:56;;;;;;;3.20;1.73;;;16.30;99.90;;;;;;5049202;28;20044;-69
2023/06/28 01:28:22;;;;;;;2.15;0.85;;;16.30;99.90;;;;;;5050488;28;20614;-68
2023/06/28 01:30:48;;;;;;;4.10;1.00;;;16.30;99.90;;;;;;5048957;28;20041;-68
2023/06/28 01:33:17;;;;;;;2.90;1.20;;;16.30;99.90;;;;;;5051682;28;20084;-69
2023/06/28 01:35:43;;;;;;;2.28;1.23;;;16.20;99.90;;;;;;5050890;28;20040;-68
2023/06/28 01:38:10;;;;;;;2.90;1.13;;;16.10;99.90;;;;;;5052358;28;20284;-68
2023/06/28 01:40:37;;;;;;;2.10;1.13;;;16.00;99.90;;;;;;5049739;28;20113;-68
2023/06/28 01:43:07;;;;;;;6.32;1.52;;;16.00;99.90;;;;;;5053372;28;20035;-68
2023/06/28 01:45:36;;;;;;;1.70;0.90;;;16.10;99.90;;;;;;5047533;28;20508;-68
2023/06/28 01:48:03;;;;;;;4.50;1.40;;;16.00;99.90;;;;;;5051274;28;20506;-68
2023/06/28 01:50:29;;;;;;;2.05;1.30;;;16.10;99.90;;;;;;5049355;28;20032;-69
2023/06/28 01:53:01;;;;;;;2.83;1.10;;;16.10;99.90;;;;;;5050541;28;20048;-69
2023/06/28 01:55:27;;;;;;;2.40;1.30;;;16.20;99.90;;;;;;5050670;28;21057;-69
2023/06/28 01:57:53;;;;;;;2.20;1.00;;;16.20;99.90;;;;;;5049497;28;20135;-69
2023/06/28 02:00:19;;;;;;;4.35;1.20;;;16.20;99.90;;;;;;5047519;28;20036;-69
2023/06/28 02:02:45;;;;;;;1.83;1.02;;;16.20;99.90;;;;;;5051938;28;20029;-69
2023/06/28 02:05:11;;;;;;;3.63;1.05;;;16.30;99.90;;;;;;5053632;28;20032;-70
2023/06/28 02:07:37;;;;;;;5.18;1.30;;;16.40;99.90;;;;;;5051564;28;20044;-69
2023/06/28 02:10:03;;;;;;;4.93;1.70;;;16.40;99.90;;;;;;5051414;28;20062;-70
2023/06/28 02:12:29;;;;;;;3.95;1.27;;;16.30;99.90;;;;;;5053031;28;21587;-69
2023/06/28 02:14:55;;;;;;;1.88;1.17;;;16.20;99.90;;;;;;5052201;28;20528;-69
2023/06/28 02:17:21;;;;;;;3.03;1.15;;;16.20;99.90;;;;;;5047553;28;20049;-69
2023/06/28 02:19:47;;;;;;;2.30;1.30;;;16.20;99.90;;;;;;5045739;28;20090;-69
2023/06/28 02:22:16;;;;;;;2.28;1.20;;;16.20;99.90;;;;;;5044487;28;20043;-69
2023/06/28 02:24:43;;;;;;;3.20;1.50;;;16.20;99.90;;;;;;5043628;28;20037;-68
2023/06/28 02:27:09;;;;;;;3.92;1.40;;;16.10;99.90;;;;;;5043712;28;20037;-68
2023/06/28 02:29:35;;;;;;;2.05;1.23;;;16.10;99.90;;;;;;5042194;28;20064;-68
2023/06/28 02:32:01;;;;;;;3.25;1.23;;;16.10;99.90;;;;;;5043830;28;20070;-69
2023/06/28 02:34:26;;;;;;;2.70;0.95;;;16.10;99.90;;;;;;5047209;28;20044;-69
2023/06/28 02:36:53;;;;;;;4.57;1.10;;;16.10;99.90;;;;;;5057032;28;20033;-69
2023/06/28 02:39:18;;;;;;;2.67;0.90;;;16.10;99.90;;;;;;5041353;28;20766;-68
2023/06/28 02:41:44;;;;;;;2.28;1.25;;;16.00;99.90;;;;;;5047175;28;20032;-69
2023/06/28 02:44:10;;;;;;;2.25;0.95;;;16.00;99.90;;;;;;5049302;28;20445;-69
2023/06/28 02:46:35;;;;;;;4.47;1.40;;;16.00;99.90;;;;;;5051271;28;20155;-69
2023/06/28 02:49:01;;;;;;;1.75;1.00;;;15.90;99.90;;;;;;5047817;28;20508;-69
2023/06/28 02:51:27;;;;;;;1.63;0.95;;;16.00;99.90;;;;;;5057204;28;20046;-68
2023/06/28 02:53:52;;;;;;;2.72;1.00;;;15.90;99.90;;;;;;5051383;28;20152;-69
2023/06/28 02:56:18;;;;;;;4.00;1.10;;;15.90;99.90;;;;;;5045666;28;20390;-69
2023/06/28 02:58:44;;;;;;;1.23;0.98;;;15.90;99.90;;;;;;5049770;28;20051;-69
2023/06/28 03:01:09;;;;;;;3.38;1.15;;;16.00;99.90;;;;;;5047799;28;20451;-68
2023/06/28 03:03:38;;;;;;;2.65;1.20;;;16.10;99.90;;;;;;5051042;28;20044;-69
2023/06/28 03:06:04;;;;;;;3.45;1.05;;;16.10;99.90;;;;;;5048425;28;20640;-68
2023/06/28 03:08:30;;;;;;;1.23;1.10;;;16.10;99.90;;;;;;5055293;28;20032;-68
2023/06/28 03:10:56;;;;;;;2.08;1.20;;;16.10;99.90;;;;;;5049920;28;20035;-69
2023/06/28 03:13:21;;;;;;;1.17;0.85;;;16.10;99.90;;;;;;5049909;28;20131;-69
2023/06/28 03:15:47;;;;;;;6.53;1.27;;;16.00;99.90;;;;;;5031111;28;20036;-69
2023/06/28 03:18:13;;;;;;;2.03;1.17;;;16.10;99.90;;;;;;5050808;28;20044;-69
2023/06/28 03:20:39;;;;;;;1.95;1.00;;;16.10;99.90;;;;;;5052407;28;20116;-69
2023/06/28 03:23:04;;;;;;;1.55;1.10;;;16.10;99.90;;;;;;5048392;28;20037;-69
2023/06/28 03:25:30;;;;;;;2.17;1.00;;;16.10;99.90;;;;;;5049754;28;20032;-69
2023/06/28 03:27:56;;;;;;;4.07;1.05;;;16.10;99.90;;;;;;5049506;28;20040;-70
2023/06/28 03:30:22;;;;;;;2.38;1.20;;;16.10;99.90;;;;;;5044969;28;20052;-69
2023/06/28 03:32:48;;;;;;;6.28;1.20;;;16.00;99.90;;;;;;5050493;28;20048;-69
2023/06/28 03:35:14;;;;;;;3.13;1.52;;;16.00;99.90;;;;;;5049398;28;20480;-69
2023/06/28 03:37:39;;;;;;;4.47;1.30;;;16.00;99.90;;;;;;5049878;28;20311;-69
2023/06/28 03:40:07;;;;;;;2.97;1.20;;;16.00;99.90;;;;;;5048158;28;20179;-69
2023/06/28 03:42:33;;;;;;;9.52;1.75;;;16.00;99.90;;;;;;5057648;28;20035;-70
2023/06/28 03:44:58;;;;;;;1.92;1.08;;;16.00;99.90;;;;;;5050961;28;20037;-70
2023/06/28 03:47:24;;;;;;;7.60;1.23;;;16.00;99.90;;;;;;5051856;28;20548;-70
2023/06/28 03:49:49;;;;;;;0.77;0.77;;;16.00;99.90;;;;;;5054572;28;20044;-70
2023/06/28 03:52:16;;;;;;;1.98;0.98;;;16.00;99.90;;;;;;5031122;28;20080;-70
2023/06/28 03:54:41;;;;;;;3.17;0.85;;;15.90;99.90;;;;;;5048957;28;20281;-70
2023/06/28 03:57:07;;;;;;;2.50;1.33;;;16.00;99.90;;;;;;5050039;28;20493;-70
2023/06/28 03:59:32;;;;;;;3.85;1.10;;;16.00;99.90;;;;;;5049051;28;20059;-69
2023/06/28 04:01:58;;;;;;;1.52;0.98;;;16.00;99.90;;;;;;5047622;28;20060;-69
2023/06/28 04:04:24;;;;;;;3.17;1.05;;;16.00;99.90;;;;;;5047578;28;20032;-69
2023/06/28 04:06:50;;;;;;;1.77;0.70;;;16.10;99.90;;;;;;5041694;28;20366;-69
2023/06/28 04:09:16;;;;;;;3.75;1.33;;;16.10;99.90;;;;;;5044305;28;20064;-69
2023/06/28 04:11:41;;;;;;;2.53;0.90;;;16.20;99.90;;;;;;5048227;28;20876;-69
2023/06/28 04:14:07;;;;;;;1.67;1.20;;;16.30;99.90;;;;;;5049595;28;20040;-69
2023/06/28 04:16:33;;;;;;;1.77;1.20;;;16.40;99.90;;;;;;5049495;28;20552;-69
2023/06/28 04:18:59;;;;;;;3.33;0.90;;;16.30;99.90;;;;;;5037423;28;20046;-69
2023/06/28 04:21:26;;;;;;;1.92;0.88;;;16.30;99.90;;;;;;5049589;28;20173;-69
2023/06/28 04:23:51;;;;;;;3.05;1.73;;;16.30;99.90;;;;;;5050858;28;20172;-69
2023/06/28 04:26:19;;;;;;;2.53;0.65;;;16.40;99.90;;;;;;5047587;28;20116;-69
2023/06/28 04:28:44;;;;;;;8.10;1.20;;;16.40;99.90;;;;;;5050214;28;20090;-69
2023/06/28 04:31:10;;;;;;;2.08;1.00;;;16.50;99.90;;;;;;5054537;28;20032;-69
2023/06/28 04:33:36;;;;;;;2.83;1.20;;;16.60;99.90;;;;;;5048726;28;20520;-70
2023/06/28 04:36:02;;;;;;;2.97;0.90;;;16.60;99.90;;;;;;5050870;28;20032;-70
2023/06/28 04:38:32;;;;;;;1.10;0.82;;;16.70;99.90;;;;;;5050234;28;20041;-70
2023/06/28 04:40:59;;;;;;;12.55;1.08;;;16.60;99.90;;;;;;5051949;28;20074;-70
2023/06/28 04:43:24;;;;;;;3.45;0.90;;;16.60;99.90;;;;;;5039325;28;20090;-69
2023/06/28 04:45:50;;;;;;;2.95;0.85;;;16.70;99.90;;;;;;5048666;28;20029;-69
2023/06/28 04:48:16;;;;;;;2.60;0.90;;;16.70;99.90;;;;;;5052079;28;20045;-71
2023/06/28 04:50:41;;;;;;;2.45;0.82;;;16.90;99.90;;;;;;5051122;28;20040;-69
2023/06/28 04:53:07;;;;;;;2.40;0.82;;;16.90;99.90;;;;;;5041704;28;20049;-70
2023/06/28 04:55:35;;;;;;;4.65;1.02;;;17.00;99.90;;;;;;5050196;28;20396;-69
2023/06/28 04:58:02;;;;;;;2.05;0.73;;;17.10;99.90;;;;;;5048330;28;20041;-69
2023/06/28 05:00:30;;;;;;;1.90;0.85;;;17.10;99.90;;;;;;5054728;28;20508;-69
2023/06/28 05:02:56;;;;;;;1.65;1.00;;;17.30;99.90;;;;;;5047691;28;20094;-70
2023/06/28 05:05:23;;;;;;;1.27;0.80;;;17.40;99.90;;;;;;5051666;28;20047;-68
2023/06/28 05:07:50;;;;;;;2.63;1.00;;;17.50;99.90;;;;;;5046534;28;20079;-67
2023/06/28 05:10:16;;;;;;;2.83;0.95;;;17.50;99.90;;;;;;5050193;28;20036;-67
2023/06/28 05:12:41;;;;;;;1.73;0.95;;;17.60;99.90;;;;;;5045646;28;20424;-67
2023/06/28 05:15:07;;;;;;;3.35;0.80;;;17.60;99.90;;;;;;5048069;28;20044;-67
2023/06/28 05:17:33;;;;;;;1.83;0.70;;;17.70;99.90;;;;;;5049770;28;20052;-68
2023/06/28 05:19:58;;;;;;;1.92;0.68;;;17.80;99.90;;;;;;5051771;28;20032;-67
2023/06/28 05:22:26;;;;;;;0.68;0.68;;;17.90;99.90;;;;;;5048685;28;20499;-68
2023/06/28 05:24:51;;;;;;;1.23;0.60;;;17.90;99.90;;;;;;5052911;28;20029;-67
2023/06/28 05:27:17;;;;;;;0.90;0.68;;;18.00;99.90;;;;;;5046883;28;20043;-68
2023/06/28 05:29:42;;;;;;;0.80;0.50;;;18.10;99.90;;;;;;5055408;28;20485;-69
2023/06/28 05:32:08;;;;;;;0.70;0.65;;;18.10;99.90;;;;;;5052602;28;20036;-68
2023/06/28 05:34:34;;;;;;;2.67;0.80;;;18.20;99.90;;;;;;5049831;28;20478;-68
2023/06/28 05:36:59;;;;;;;1.35;0.73;;;18.20;99.90;;;;;;5054498;28;20028;-67
2023/06/28 05:39:25;;;;;;;2.38;0.60;;;18.30;99.90;;;;;;5050423;28;20044;-67
2023/06/28 05:41:50;;;;;;;2.25;1.20;;;18.20;99.90;;;;;;5043325;28;20041;-68
2023/06/28 05:44:20;;;;;;;1.08;0.55;;;18.20;99.90;;;;;;5037279;28;20704;-68
2023/06/28 05:46:46;;;;;;;0.93;0.57;;;18.20;99.90;;;;;;5035902;28;20025;-67
2023/06/28 05:49:12;;;;;;;3.38;0.90;;;18.30;99.90;;;;;;5053582;28;20029;-67
2023/06/28 05:51:38;;;;;;;1.70;0.75;;;18.30;99.90;;;;;;5050703;28;20497;-67
2023/06/28 05:54:04;;;;;;;0.93;0.40;;;18.30;99.90;;;;;;5040523;28;20044;-67
2023/06/28 05:56:30;;;;;;;0.85;0.73;;;18.30;99.90;;;;;;5056263;28;20037;-67
2023/06/28 05:58:56;;;;;;;7.47;1.27;;;18.30;99.90;;;;;;5053743;28;20021;-71
2023/06/28 06:01:23;;;;;;;6.70;1.48;;;18.40;99.90;;;;;;5053414;28;20070;-67
2023/06/28 06:03:49;;;;;;;2.95;0.52;;;18.40;99.90;;;;;;5056223;28;20039;-67
2023/06/28 06:06:15;;;;;;;2.05;0.55;;;18.40;99.90;;;;;;5054967;28;20048;-67
2023/06/28 06:08:41;;;;;;;1.58;0.60;;;18.40;99.90;;;;;;5054810;28;20020;-67
2023/06/28 06:11:07;;;;;;;1.17;0.50;;;18.40;99.90;;;;;;5057696;28;20028;-67
2023/06/28 06:13:32;;;;;;;0.95;0.70;;;18.40;99.90;;;;;;5053643;28;20045;-67
2023/06/28 06:15:58;;;;;;;0.68;0.60;;;18.50;99.90;;;;;;5058496;28;20045;-67
2023/06/28 06:18:24;;;;;;;2.05;0.60;;;18.40;99.90;;;;;;5048392;28;25618;-68
2023/06/28 06:20:50;;;;;;;0.35;0.30;;;18.40;99.90;;;;;;5057785;28;20116;-68
2023/06/28 06:23:18;;;;;;;1.08;0.30;;;18.50;99.90;;;;;;5057197;28;20040;-67
2023/06/28 06:25:43;;;;;;;0.35;0.35;;;18.50;99.90;;;;;;5056589;28;20083;-68
2023/06/28 06:28:09;;;;;;;0.55;0.40;;;18.50;99.90;;;;;;5053840;28;20143;-67
2023/06/28 06:30:35;;;;;;;0.95;0.50;;;18.40;99.90;;;;;;5057046;28;20040;-68
2023/06/28 06:33:01;;;;;;;0.90;0.50;;;18.40;99.90;;;;;;5055858;28;20118;-67
2023/06/28 06:35:27;;;;;;;0.40;0.40;;;18.40;99.90;;;;;;5060598;28;20058;-68
2023/06/28 06:37:53;;;;;;;0.93;0.40;;;18.30;99.90;;;;;;5051085;28;20110;-67
2023/06/28 06:40:19;;;;;;;1.13;0.40;;;18.40;99.90;;;;;;5056898;28;20558;-67
2023/06/28 06:42:45;;;;;;;1.00;0.43;;;18.40;99.90;;;;;;5053660;28;20544;-68
2023/06/28 06:45:16;;;;;;;1.08;0.52;;;18.40;99.90;;;;;;5062542;28;20074;-72
2023/06/28 06:47:43;;;;;;;0.40;0.37;;;18.40;99.90;;;;;;5060267;28;20060;-72
2023/06/28 06:50:09;;;;;;;3.15;0.60;;;18.40;99.90;;;;;;5053905;28;20285;-72
2023/06/28 06:52:36;;;;;;;1.00;0.30;;;18.40;99.90;;;;;;5055018;28;20052;-72
2023/06/28 06:55:02;;;;;;;1.08;0.50;;;18.40;99.90;;;;;;5055378;28;20040;-71
2023/06/28 06:57:28;;;;;;;1.15;0.50;;;18.50;99.90;;;;;;5051623;28;20040;-72
2023/06/28 06:59:53;;;;;;;2.28;0.43;;;18.50;99.90;;;;;;5051141;28;20033;-71
2023/06/28 07:02:21;;;;;;;0.50;0.40;;;18.50;99.90;;;;;;5053946;28;20043;-67
2023/06/28 07:04:46;;;;;;;1.23;0.30;;;18.60;99.90;;;;;;5052505;28;20078;-72
2023/06/28 07:07:12;;;;;;;1.90;0.43;;;18.50;99.90;;;;;;5040406;28;20044;-71
2023/06/28 07:09:37;;;;;;;1.52;0.45;;;18.50;99.90;;;;;;5052089;28;20025;-72
2023/06/28 07:12:03;;;;;;;0.50;0.50;;;18.50;99.90;;;;;;5049688;28;20445;-72
2023/06/28 07:14:29;;;;;;;1.45;0.50;;;18.50;99.90;;;;;;5050383;28;20052;-72
2023/06/28 07:16:55;;;;;;;1.10;0.32;;;18.50;99.90;;;;;;5035909;28;20052;-71
2023/06/28 07:19:20;;;;;;;0.60;0.30;;;18.60;99.90;;;;;;5057984;28;20087;-70
2023/06/28 07:21:46;;;;;;;3.13;0.50;;;18.80;99.90;;;;;;5054849;28;20107;-71
2023/06/28 07:24:11;;;;;;;1.75;0.40;;;19.00;99.90;;;;;;5052087;28;20039;-71
2023/06/28 07:26:37;;;;;;;1.60;0.30;;;19.20;99.90;;;;;;5055170;28;20027;-71
2023/06/28 07:29:03;;;;;;;1.67;0.68;;;19.40;99.90;;;;;;5056044;28;20404;-71
2023/06/28 07:31:29;;;;;;;2.55;0.63;;;19.40;99.90;;;;;;5052060;28;20169;-71
2023/06/28 07:33:54;;;;;;;2.63;0.50;;;19.30;99.90;;;;;;5049160;28;20040;-71
2023/06/28 07:36:20;;;;;;;0.52;0.50;;;19.30;99.90;;;;;;5056290;28;20242;-72
2023/06/28 07:38:46;;;;;;;2.17;0.77;;;19.20;99.90;;;;;;5054963;28;20123;-63
2023/06/28 07:41:12;;;;;;;6.30;0.95;;;19.10;99.90;;;;;;5058203;28;20052;-63
2023/06/28 07:43:38;;;;;;;2.40;0.80;;;19.20;99.90;;;;;;5040614;28;20247;-71
2023/06/28 07:46:03;;;;;;;0.75;0.60;;;19.20;99.90;;;;;;5058328;28;20036;-73
2023/06/28 07:48:29;;;;;;;7.95;0.80;;;19.30;99.90;;;;;;5053970;28;20036;-72
2023/06/28 07:50:55;;;;;;;1.15;0.57;;;19.30;99.90;;;;;;5053417;28;20062;-71
2023/06/28 07:53:21;;;;;;;2.85;0.55;;;19.50;99.90;;;;;;5046192;28;20048;-71
2023/06/28 07:55:47;;;;;;;2.65;0.45;;;19.70;99.90;;;;;;5054428;28;20029;-67
2023/06/28 07:58:12;;;;;;;1.67;0.70;;;19.70;99.90;;;;;;5051977;28;20036;-67
2023/06/28 08:00:38;;;;;;;1.63;0.70;;;19.80;99.90;;;;;;5056377;28;20060;-68
2023/06/28 08:03:04;;;;;;;5.28;0.60;;;19.90;99.90;;;;;;5056107;28;20039;-67
2023/06/28 08:05:29;;;;;;;1.00;0.63;;;20.20;99.90;;;;;;5051133;28;20756;-67
2023/06/28 08:07:55;;;;;;;1.23;0.52;;;20.20;99.90;;;;;;5055185;28;20126;-67
2023/06/28 08:10:22;;;;;;;1.50;0.73;;;20.20;99.90;;;;;;5056689;28;20024;-66
2023/06/28 08:12:48;;;;;;;0.75;0.50;;;20.20;99.90;;;;;;5054129;28;20046;-67
2023/06/28 08:15:13;;;;;;;1.08;0.60;;;20.10;99.90;;;;;;5061059;28;20036;-67
2023/06/28 08:17:39;;;;;;;0.82;0.50;;;20.20;99.90;;;;;;5057439;28;20036;-67
2023/06/28 08:20:06;;;;;;;2.00;0.70;;;20.30;99.90;;;;;;5057370;28;20033;-68
2023/06/28 08:22:31;;;;;;;2.80;0.60;;;20.30;99.90;;;;;;5058475;28;20043;-67
2023/06/28 08:24:57;;;;;;;1.15;0.52;;;20.20;99.90;;;;;;5053641;28;20032;-67
2023/06/28 08:27:23;;;;;;;2.83;0.60;;;20.00;99.90;;;;;;5049293;28;20068;-67
2023/06/28 08:29:49;;;;;;;1.10;0.52;;;19.80;99.90;;;;;;5055063;28;20514;-67
2023/06/28 08:32:14;;;;;;;1.42;0.52;;;19.70;99.90;;;;;;5049828;28;20414;-67
2023/06/28 08:34:40;;;;;;;0.90;0.50;;;19.50;99.90;;;;;;5045029;28;20032;-67
2023/06/28 08:37:06;;;;;;;1.13;0.60;;;19.70;99.90;;;;;;5050770;28;20031;-67
2023/06/28 08:39:32;;;;;;;3.15;0.50;;;20.00;99.90;;;;;;5050967;28;20037;-68
2023/06/28 08:42:00;;;;;;;1.45;0.45;;;20.20;99.90;;;;;;5052852;28;20033;-67
2023/06/28 08:44:27;;;;;;;0.45;0.45;;;20.30;99.90;;;;;;5056117;28;20040;-67
2023/06/28 08:46:54;;;;;;;0.55;0.50;;;20.40;99.90;;;;;;5057146;28;20025;-67
2023/06/28 08:49:20;;;;;;;2.80;0.65;;;20.40;99.90;;;;;;5055807;28;20036;-68
2023/06/28 08:51:46;;;;;;;0.88;0.45;;;20.60;99.90;;;;;;5055292;28;20052;-67
2023/06/28 08:54:14;;;;;;;3.92;0.52;;;20.80;99.90;;;;;;5058555;28;20067;-73
2023/06/28 08:56:41;;;;;;;0.98;0.50;;;20.90;99.90;;;;;;5061471;28;20037;-72
2023/06/28 08:59:08;;;;;;;1.55;0.70;;;20.70;99.90;;;;;;5045680;28;20079;-73
2023/06/28 09:01:35;;;;;;;2.63;0.75;;;20.70;99.90;;;;;;5056027;28;20561;-73
2023/06/28 09:04:04;;;;;;;7.70;0.60;;;20.50;99.90;;;;;;5055461;28;20078;-71
2023/06/28 09:06:30;;;;;;;4.38;0.65;;;20.40;99.90;;;;;;5041824;28;20509;-72
2023/06/28 09:08:56;;;;;;;1.65;0.68;;;20.50;99.90;;;;;;5046785;28;20106;-72
2023/06/28 09:11:22;;;;;;;1.48;0.73;;;20.50;99.90;;;;;;5055791;28;20600;-71
2023/06/28 09:13:48;;;;;;;0.70;0.55;;;20.50;99.90;;;;;;5052893;28;20152;-72
2023/06/28 09:16:14;;;;;;;0.63;0.43;;;20.60;99.90;;;;;;5046709;28;20558;-72
2023/06/28 09:18:40;;;;;;;1.25;0.50;;;20.70;99.90;;;;;;5051015;28;20040;-72
2023/06/28 09:21:05;;;;;;;1.35;0.52;;;20.60;99.90;;;;;;5046138;28;20021;-71
2023/06/28 09:23:33;;;;;;;0.95;0.60;;;20.50;99.90;;;;;;5062688;28;20102;-71
2023/06/28 09:25:59;;;;;;;0.63;0.50;;;20.50;99.90;;;;;;5064560;28;20036;-71
2023/06/28 09:28:33;;;;;;;0.70;0.50;;;20.60;99.90;;;;;;5063141;28;20044;-71
2023/06/28 09:30:59;;;;;;;1.08;0.50;;;20.80;99.90;;;;;;5056268;28;20061;-72
2023/06/28 09:33:26;;;;;;;1.33;0.57;;;20.90;99.90;;;;;;5039769;28;20112;-72
2023/06/28 09:35:55;;;;;;;0.55;0.50;;;21.10;99.90;;;;;;5050736;28;20028;-72
2023/06/28 09:38:21;;;;;;;1.75;0.57;;;21.00;99.90;;;;;;5030045;28;20155;-72
2023/06/28 09:40:54;;;;;;;1.05;0.70;;;20.90;99.90;;;;;;5053327;28;20098;-72
2023/06/28 09:43:21;;;;;;;0.75;0.38;;;20.90;99.90;;;;;;5038470;28;20929;-73
2023/06/28 09:45:47;;;;;;;0.70;0.55;;;20.90;99.90;;;;;;5049946;28;20076;-72
2023/06/28 09:48:13;;;;;;;0.57;0.40;;;20.90;99.90;;;;;;5057368;28;20083;-72
2023/06/28 09:50:40;;;;;;;0.32;0.30;;;20.90;99.90;;;;;;5055673;28;20052;-71
2023/06/28 09:53:10;;;;;;;1.60;0.63;;;21.10;99.90;;;;;;5057986;28;20059;-71
2023/06/28 09:55:40;;;;;;;2.50;0.70;;;21.20;99.90;;;;;;5039826;28;20140;-72
2023/06/28 09:58:17;;;;;;;0.77;0.40;;;21.20;99.90;;;;;;5052722;28;20148;-73
2023/06/28 10:00:45;;;;;;;1.20;0.55;;;21.20;99.90;;;;;;5056241;28;20040;-72
2023/06/28 10:03:13;;;;;;;2.45;1.10;;;21.10;99.90;;;;;;5064301;28;20066;-72
2023/06/28 10:05:40;;;;;;;0.40;0.40;;;21.10;99.90;;;;;;5045735;28;20445;-73
2023/06/28 10:08:11;;;;;;;0.77;0.52;;;21.20;99.90;;;;;;5052529;28;20055;-71
2023/06/28 10:10:38;;;;;;;1.05;0.28;;;21.30;99.90;;;;;;5058791;28;20737;-71
2023/06/28 10:13:08;;;;;;;0.77;0.50;;;21.40;99.90;;;;;;5058566;28;20040;-72
2023/06/28 10:15:43;;;;;;;4.07;0.73;;;21.50;99.90;;;;;;5051146;28;20025;-71
2023/06/28 10:18:09;;;;;;;0.82;0.60;;;21.50;99.90;;;;;;5059712;28;20608;-71
2023/06/28 10:20:37;;;;;;;0.70;0.50;;;21.50;99.90;;;;;;5061739;28;20102;-71
2023/06/28 10:23:06;;;;;;;0.70;0.55;;;21.60;99.90;;;;;;5058855;28;20033;-68
2023/06/28 10:25:32;;;;;;;0.82;0.65;;;21.70;99.90;;;;;;5055889;28;20136;-72
2023/06/28 10:27:59;;;;;;;0.35;0.32;;;21.90;99.90;;;;;;5061792;28;20064;-72
2023/06/28 10:30:25;;;;;;;0.52;0.32;;;21.80;99.80;;;;;;5056346;28;20044;-71
2023/06/28 10:32:52;;;;;;;0.82;0.50;;;21.70;99.90;;;;;;5059339;28;20043;-71
2023/06/28 10:35:18;;;;;;;1.15;0.40;;;21.70;99.90;;;;;;5062550;28;20049;-71
2023/06/28 10:37:44;;;;;;;0.40;0.40;;;21.80;99.90;;;;;;5058320;28;20557;-63
2023/06/28 10:40:10;;;;;;;0.57;0.50;;;22.00;99.90;;;;;;5037485;28;20045;-63
2023/06/28 10:42:39;;;;;;;0.60;0.47;;;22.20;99.90;;;;;;5051190;28;20037;-73
2023/06/28 10:45:05;;;;;;;0.88;0.50;;;22.40;99.90;;;;;;5057465;28;20500;-66
2023/06/28 10:47:34;;;;;;;0.95;0.45;;;22.20;99.90;;;;;;5054795;28;20563;-66
2023/06/28 10:50:10;;;;;;;0.70;0.47;;;22.20;99.90;;;;;;5058094;28;20029;-69
2023/06/28 10:52:49;;;;;;;0.90;0.40;;;22.20;99.10;;;;;;5050019;28;20139;-66
2023/06/28 10:55:34;;;;;;;3.17;0.70;;;22.30;99.70;;;;;;5053387;28;20040;-72
2023/06/28 10:58:04;;;;;;;2.00;0.60;;;22.50;98.90;;;;;;5043936;28;20044;-66
2023/06/28 11:00:51;;;;;;;1.55;0.30;;;22.50;97.70;;;;;;5040608;28;20036;-66
2023/06/28 11:03:18;;;;;;;2.50;0.57;;;22.50;96.50;;;;;;5058340;28;20028;-64
2023/06/28 11:05:54;;;;;;;0.95;0.60;;;22.50;96.60;;;;;;5038495;28;20543;-66
2023/06/28 11:08:21;;;;;;;0.85;0.40;;;22.50;95.20;;;;;;5031420;28;20042;-66
2023/06/28 11:10:58;;;;;;;0.45;0.40;;;22.50;96.90;;;;;;5035283;28;20033;-66
2023/06/28 11:13:39;;;;;;;2.72;0.65;;;22.50;95.80;;;;;;5045499;28;20048;-66
2023/06/28 11:16:24;;;;;;;2.83;0.60;;;22.50;96.80;;;;;;5053128;28;20151;-65
2023/06/28 11:18:51;;;;;;;3.60;0.60;;;22.70;96.50;;;;;;5046536;28;20033;-74
2023/06/28 11:21:22;;;;;;;0.70;0.38;;;22.70;98.60;;;;;;5047906;28;20048;-66
2023/06/28 11:23:48;;;;;;;0.63;0.38;;;22.80;98.50;;;;;;5051034;28;20055;-66
2023/06/28 11:26:16;;;;;;;2.00;0.40;;;22.80;98.80;;;;;;5053435;28;20115;-66
2023/06/28 11:28:55;;;;;;;1.25;0.60;;;22.80;97.50;;;;;;5050755;28;20043;-66
2023/06/28 11:31:21;;;;;;;0.88;0.60;;;22.90;98.00;;;;;;5050451;28;20041;-66
2023/06/28 11:33:47;;;;;;;1.33;0.50;;;23.00;98.50;;;;;;5049070;28;20055;-66
2023/06/28 11:36:14;;;;;;;0.98;0.60;;;23.00;97.20;;;;;;5036940;28;20037;-65
2023/06/28 11:38:43;;;;;;;1.85;0.50;;;22.70;96.40;;;;;;5051413;28;20126;-66
2023/06/28 11:41:09;;;;;;;3.85;0.40;;;22.20;97.30;;;;;;5039764;28;20044;-66
2023/06/28 11:43:35;;;;;;;1.23;0.73;;;21.80;98.80;;;;;;5046854;28;20032;-66
2023/06/28 11:46:01;;;;;;;3.45;0.60;;;21.50;99.80;;;;;;5043506;28;20115;-66
2023/06/28 11:48:27;;;;;;;1.23;0.52;;;21.50;97.30;;;;;;5039636;28;20044;-65
2023/06/28 11:51:00;;;;;;;1.48;0.40;;;21.60;99.10;;;;;;5043168;28;20105;-65
2023/06/28 11:53:27;;;;;;;0.60;0.60;;;21.70;98.10;;;;;;5040722;28;20045;-65
2023/06/28 11:55:54;;;;;;;0.38;0.38;;;22.00;97.90;;;;;;5050444;28;20397;-65
2023/06/28 11:58:31;;;;;;;5.28;0.40;;;22.10;97.00;;;;;;5044722;28;20065;-66
2023/06/28 12:00:57;;;;;;;1.38;0.68;;;22.30;97.10;;;;;;5040771;28;20025;-65
2023/06/28 12:03:33;;;;;;;1.77;0.50;;;22.40;93.60;;;;;;5048400;28;20028;-65
2023/06/28 12:06:00;;;;;;;2.75;0.50;;;22.30;95.90;;;;;;5037845;28;20751;-72
2023/06/28 12:08:34;;;;;;;4.22;0.70;;;22.50;95.80;;;;;;5035820;28;20067;-77
2023/06/28 12:11:07;;;;;;;1.05;0.60;;;22.60;98.30;;;;;;5050593;28;20068;-79
2023/06/28 12:13:33;;;;;;;6.75;0.60;;;22.70;99.70;;;;;;5029431;28;20147;-78
2023/06/28 12:16:11;;;;;;;4.38;0.60;;;22.90;99.30;;;;;;5047539;28;20037;-77
2023/06/28 12:18:58;;;;;;;1.08;0.60;;;23.00;97.30;;;;;;5045994;28;20033;-76
2023/06/28 12:21:26;;;;;;;1.85;0.70;;;22.80;96.80;;;;;;5046834;28;20041;-75
2023/06/28 12:23:52;;;;;;;1.15;0.65;;;22.70;97.20;;;;;;5049381;28;20067;-75
2023/06/28 12:26:18;;;;;;;4.28;0.55;;;22.80;98.00;;;;;;5042916;28;20036;-75
2023/06/28 12:28:51;;;;;;;0.93;0.60;;;22.80;96.20;;;;;;5050131;28;20039;-74
2023/06/28 12:31:16;;;;;;;1.38;0.85;;;22.90;95.90;;;;;;5054234;28;20479;-75
2023/06/28 12:33:42;;;;;;;0.77;0.45;;;23.00;96.80;;;;;;5050236;28;20032;-75
2023/06/28 12:36:18;;;;;;;1.75;0.65;;;23.10;97.00;;;;;;5039725;28;21001;-65
2023/06/28 12:38:45;;;;;;;2.55;0.50;;;23.10;95.00;;;;;;5044831;28;20721;-65
2023/06/28 12:41:14;;;;;;;1.70;0.50;;;22.90;96.30;;;;;;5036109;28;20735;-66
2023/06/28 12:43:40;;;;;;;2.25;0.93;;;22.60;98.10;;;;;;5047441;28;20074;-67
2023/06/28 12:46:06;;;;;;;0.75;0.60;;;22.30;95.80;;;;;;5039406;28;20123;-66